sensor_id;sensor_type;location;lat;lon;timestamp;temperature;humidity
7290;DHT22;63176;52.678;13.250;2023-04-24T00:00:46;12.40;99.90
7290;DHT22;63176;52.678;13.250;2023-04-24T00:03:12;12.30;99.90
7290;DHT22;63176;52.678;13.250;2023-04-24T00:05:38;12.30;99.90
7290;DHT22;63176;52.678;13.250;2023-04-24T00:08:06;12.20;99.90
7290;DHT22;63176;52.678;13.250;2023-04-24T00:10:31;12.10;99.90
7290;DHT22;63176;52.678;13.250;2023-04-24T00:12:57;12.10;99.90
7290;DHT22;63176;52.678;13.250;2023-04-24T00:15:23;12.10;99.90
7290;DHT22;63176;52.678;13.250;2023-04-24T00:17:48;12.00;99.90
7290;DHT22;63176;52.678;13.250;2023-04-24T00:20:14;12.10;99.90
7290;DHT22;63176;52.678;13.250;2023-04-24T00:22:40;12.10;99.90
7290;DHT22;63176;52.678;13.250;2023-04-24T00:25:06;12.10;99.90
7290;DHT22;63176;52.678;13.250;2023-04-24T00:27:32;12.10;99.90
7290;DHT22;63176;52.678;13.250;2023-04-24T00:29:58;12.10;99.90
7290;DHT22;63176;52.678;13.250;2023-04-24T00:32:23;12.10;99.90
7290;DHT22;63176;52.678;13.250;2023-04-24T00:34:49;12.10;99.90
7290;DHT22;63176;52.678;13.250;2023-04-24T00:37:15;12.10;99.90
7290;DHT22;63176;52.678;13.250;2023-04-24T00:39:41;12.10;99.90
7290;DHT22;63176;52.678;13.250;2023-04-24T00:42:06;12.10;99.90
7290;DHT22;63176;52.678;13.250;2023-04-24T00:44:33;12.00;99.90
7290;DHT22;63176;52.678;13.250;2023-04-24T00:47:00;12.10;99.90
7290;DHT22;63176;52.678;13.250;2023-04-24T00:49:26;12.10;99.90
7290;DHT22;63176;52.678;13.250;2023-04-24T00:51:52;12.10;99.90
7290;DHT22;63176;52.678;13.250;2023-04-24T00:54:19;12.10;99.90
7290;DHT22;63176;52.678;13.250;2023-04-24T00:56:45;12.10;99.90
7290;DHT22;63176;52.678;13.250;2023-04-24T00:59:12;12.20;99.90
7290;DHT22;63176;52.678;13.250;2023-04-24T01:01:38;12.20;99.90
7290;DHT22;63176;52.678;13.250;2023-04-24T01:04:08;12.20;99.90
7290;DHT22;63176;52.678;13.250;2023-04-24T01:06:35;12.20;99.90
7290;DHT22;63176;52.678;13.250;2023-04-24T01:09:03;12.20;99.90
7290;DHT22;63176;52.678;13.250;2023-04-24T01:11:30;12.20;99.90
7290;DHT22;63176;52.678;13.250;2023-04-24T01:13:56;12.20;99.90
7290;DHT22;63176;52.678;13.250;2023-04-24T01:16:23;12.20;99.90
7290;DHT22;63176;52.678;13.250;2023-04-24T01:18:49;12.30;99.90
7290;DHT22;63176;52.678;13.250;2023-04-24T01:21:15;12.30;99.90
7290;DHT22;63176;52.678;13.250;2023-04-24T01:23:45;12.30;99.90
7290;DHT22;63176;52.678;13.250;2023-04-24T01:26:12;12.30;99.90
7290;DHT22;63176;52.678;13.250;2023-04-24T01:28:38;12.30;99.90
7290;DHT22;63176;52.678;13.250;2023-04-24T01:31:04;12.30;99.90
7290;DHT22;63176;52.678;13.250;2023-04-24T01:33:30;12.40;99.90
7290;DHT22;63176;52.678;13.250;2023-04-24T01:35:55;12.40;99.90
7290;DHT22;63176;52.678;13.250;2023-04-24T01:38:21;12.40;99.90
7290;DHT22;63176;52.678;13.250;2023-04-24T01:40:47;12.40;99.90
7290;DHT22;63176;52.678;13.250;2023-04-24T01:43:13;12.50;99.90
7290;DHT22;63176;52.678;13.250;2023-04-24T01:45:39;12.40;99.90
7290;DHT22;63176;52.678;13.250;2023-04-24T01:48:04;12.50;99.90
7290;DHT22;63176;52.678;13.250;2023-04-24T01:50:30;12.50;99.90
7290;DHT22;63176;52.678;13.250;2023-04-24T01:52:56;12.40;99.90
7290;DHT22;63176;52.678;13.250;2023-04-24T01:55:22;12.40;99.90
7290;DHT22;63176;52.678;13.250;2023-04-24T01:57:47;12.40;99.90
7290;DHT22;63176;52.678;13.250;2023-04-24T02:00:14;12.40;99.90
7290;DHT22;63176;52.678;13.250;2023-04-24T02:02:40;12.40;99.90
7290;DHT22;63176;52.678;13.250;2023-04-24T02:05:07;12.40;99.90
7290;DHT22;63176;52.678;13.250;2023-04-24T02:07:33;12.30;99.90
7290;DHT22;63176;52.678;13.250;2023-04-24T02:09:59;12.30;99.90
7290;DHT22;63176;52.678;13.250;2023-04-24T02:12:24;12.30;99.90
7290;DHT22;63176;52.678;13.250;2023-04-24T02:14:50;12.30;99.90
7290;DHT22;63176;52.678;13.250;2023-04-24T02:17:16;12.20;99.90
7290;DHT22;63176;52.678;13.250;2023-04-24T02:19:42;12.30;99.90
7290;DHT22;63176;52.678;13.250;2023-04-24T02:22:08;12.30;99.90
7290;DHT22;63176;52.678;13.250;2023-04-24T02:24:33;12.30;99.90
7290;DHT22;63176;52.678;13.250;2023-04-24T02:26:59;12.30;99.90
7290;DHT22;63176;52.678;13.250;2023-04-24T02:29:25;12.30;99.90
7290;DHT22;63176;52.678;13.250;2023-04-24T02:31:51;12.30;99.90
7290;DHT22;63176;52.678;13.250;2023-04-24T02:34:16;12.30;99.90
7290;DHT22;63176;52.678;13.250;2023-04-24T02:36:42;12.20;99.90
7290;DHT22;63176;52.678;13.250;2023-04-24T02:39:07;12.20;99.90
7290;DHT22;63176;52.678;13.250;2023-04-24T02:41:33;12.10;99.90
7290;DHT22;63176;52.678;13.250;2023-04-24T02:43:59;12.00;99.90
7290;DHT22;63176;52.678;13.250;2023-04-24T02:46:25;12.10;99.90
7290;DHT22;63176;52.678;13.250;2023-04-24T02:48:51;12.10;99.90
7290;DHT22;63176;52.678;13.250;2023-04-24T02:51:16;12.10;99.90
7290;DHT22;63176;52.678;13.250;2023-04-24T02:53:42;12.10;99.90
7290;DHT22;63176;52.678;13.250;2023-04-24T02:56:08;12.10;99.90
7290;DHT22;63176;52.678;13.250;2023-04-24T02:58:33;12.10;99.90
7290;DHT22;63176;52.678;13.250;2023-04-24T03:00:59;12.10;99.90
7290;DHT22;63176;52.678;13.250;2023-04-24T03:03:25;12.10;99.90
7290;DHT22;63176;52.678;13.250;2023-04-24T03:05:51;12.10;99.90
7290;DHT22;63176;52.678;13.250;2023-04-24T03:08:16;12.10;99.90
7290;DHT22;63176;52.678;13.250;2023-04-24T03:10:43;12.10;99.90
7290;DHT22;63176;52.678;13.250;2023-04-24T03:13:08;12.10;99.90
7290;DHT22;63176;52.678;13.250;2023-04-24T03:15:34;12.20;99.90
7290;DHT22;63176;52.678;13.250;2023-04-24T03:18:00;12.30;99.90
7290;DHT22;63176;52.678;13.250;2023-04-24T03:20:26;12.20;99.90
7290;DHT22;63176;52.678;13.250;2023-04-24T03:22:51;12.20;99.90
7290;DHT22;63176;52.678;13.250;2023-04-24T03:25:17;12.30;99.90
7290;DHT22;63176;52.678;13.250;2023-04-24T03:27:43;12.30;99.90
7290;DHT22;63176;52.678;13.250;2023-04-24T03:30:08;12.30;99.90
7290;DHT22;63176;52.678;13.250;2023-04-24T03:32:34;12.30;99.90
7290;DHT22;63176;52.678;13.250;2023-04-24T03:35:00;12.30;99.90
7290;DHT22;63176;52.678;13.250;2023-04-24T03:37:26;12.30;99.90
7290;DHT22;63176;52.678;13.250;2023-04-24T03:39:52;12.30;99.90
7290;DHT22;63176;52.678;13.250;2023-04-24T03:42:17;12.40;99.90
7290;DHT22;63176;52.678;13.250;2023-04-24T03:44:43;12.40;99.90
7290;DHT22;63176;52.678;13.250;2023-04-24T03:47:09;12.40;99.90
7290;DHT22;63176;52.678;13.250;2023-04-24T03:49:35;12.40;99.90
7290;DHT22;63176;52.678;13.250;2023-04-24T03:52:01;12.40;99.90
7290;DHT22;63176;52.678;13.250;2023-04-24T03:54:26;12.40;99.90
7290;DHT22;63176;52.678;13.250;2023-04-24T03:56:52;12.40;99.90
7290;DHT22;63176;52.678;13.250;2023-04-24T03:59:18;12.40;99.90
7290;DHT22;63176;52.678;13.250;2023-04-24T04:01:44;12.40;99.90
7290;DHT22;63176;52.678;13.250;2023-04-24T04:04:10;12.40;99.90
7290;DHT22;63176;52.678;13.250;2023-04-24T04:06:36;12.40;99.90
7290;DHT22;63176;52.678;13.250;2023-04-24T04:09:02;12.40;99.90
7290;DHT22;63176;52.678;13.250;2023-04-24T04:11:29;12.40;99.90
7290;DHT22;63176;52.678;13.250;2023-04-24T04:13:54;12.40;99.90
7290;DHT22;63176;52.678;13.250;2023-04-24T04:16:20;12.40;99.90
7290;DHT22;63176;52.678;13.250;2023-04-24T04:18:46;12.40;99.90
7290;DHT22;63176;52.678;13.250;2023-04-24T04:21:12;12.40;99.90
7290;DHT22;63176;52.678;13.250;2023-04-24T04:23:37;12.40;99.90
7290;DHT22;63176;52.678;13.250;2023-04-24T04:26:03;12.40;99.90
7290;DHT22;63176;52.678;13.250;2023-04-24T04:28:29;12.40;99.90
7290;DHT22;63176;52.678;13.250;2023-04-24T04:30:57;12.40;99.90
7290;DHT22;63176;52.678;13.250;2023-04-24T04:33:26;12.40;99.90
7290;DHT22;63176;52.678;13.250;2023-04-24T04:35:52;12.40;99.90
7290;DHT22;63176;52.678;13.250;2023-04-24T04:38:21;12.40;99.90
7290;DHT22;63176;52.678;13.250;2023-04-24T04:40:46;12.40;99.90
7290;DHT22;63176;52.678;13.250;2023-04-24T04:43:12;12.40;99.90
7290;DHT22;63176;52.678;13.250;2023-04-24T04:45:41;12.40;99.90
7290;DHT22;63176;52.678;13.250;2023-04-24T04:48:09;12.40;99.90
7290;DHT22;63176;52.678;13.250;2023-04-24T04:50:35;12.40;99.90
7290;DHT22;63176;52.678;13.250;2023-04-24T04:53:01;12.40;99.90
7290;DHT22;63176;52.678;13.250;2023-04-24T04:55:26;12.40;99.90
7290;DHT22;63176;52.678;13.250;2023-04-24T04:57:52;12.50;99.90
7290;DHT22;63176;52.678;13.250;2023-04-24T05:00:18;12.50;99.90
7290;DHT22;63176;52.678;13.250;2023-04-24T05:02:44;12.50;99.90
7290;DHT22;63176;52.678;13.250;2023-04-24T05:05:10;12.50;99.90
7290;DHT22;63176;52.678;13.250;2023-04-24T05:07:35;12.60;99.90
7290;DHT22;63176;52.678;13.250;2023-04-24T05:10:01;12.60;99.90
7290;DHT22;63176;52.678;13.250;2023-04-24T05:12:27;12.70;99.90
7290;DHT22;63176;52.678;13.250;2023-04-24T05:14:53;12.70;99.90
7290;DHT22;63176;52.678;13.250;2023-04-24T05:17:18;12.70;99.90
7290;DHT22;63176;52.678;13.250;2023-04-24T05:19:44;12.70;99.90
7290;DHT22;63176;52.678;13.250;2023-04-24T05:22:10;12.80;99.90
7290;DHT22;63176;52.678;13.250;2023-04-24T05:24:36;12.80;99.90
7290;DHT22;63176;52.678;13.250;2023-04-24T05:27:03;12.80;99.90
7290;DHT22;63176;52.678;13.250;2023-04-24T05:29:30;12.90;99.90
7290;DHT22;63176;52.678;13.250;2023-04-24T05:31:59;13.00;99.90
7290;DHT22;63176;52.678;13.250;2023-04-24T05:34:25;13.00;99.90
7290;DHT22;63176;52.678;13.250;2023-04-24T05:36:51;13.10;99.90
7290;DHT22;63176;52.678;13.250;2023-04-24T05:39:17;13.20;99.90
7290;DHT22;63176;52.678;13.250;2023-04-24T05:41:43;13.20;99.90
7290;DHT22;63176;52.678;13.250;2023-04-24T05:44:08;13.10;99.90
7290;DHT22;63176;52.678;13.250;2023-04-24T05:46:34;13.20;99.90
7290;DHT22;63176;52.678;13.250;2023-04-24T05:49:00;13.00;99.90
7290;DHT22;63176;52.678;13.250;2023-04-24T05:51:26;13.30;99.90
7290;DHT22;63176;52.678;13.250;2023-04-24T05:53:51;13.30;99.90
7290;DHT22;63176;52.678;13.250;2023-04-24T05:56:18;13.40;99.90
7290;DHT22;63176;52.678;13.250;2023-04-24T05:58:45;13.40;99.90
7290;DHT22;63176;52.678;13.250;2023-04-24T06:01:11;13.50;99.90
7290;DHT22;63176;52.678;13.250;2023-04-24T06:03:38;13.60;99.90
7290;DHT22;63176;52.678;13.250;2023-04-24T06:06:05;13.60;99.90
7290;DHT22;63176;52.678;13.250;2023-04-24T06:08:31;13.60;99.90
7290;DHT22;63176;52.678;13.250;2023-04-24T06:10:57;13.60;99.90
7290;DHT22;63176;52.678;13.250;2023-04-24T06:13:22;13.70;99.90
7290;DHT22;63176;52.678;13.250;2023-04-24T06:15:48;13.80;99.90
7290;DHT22;63176;52.678;13.250;2023-04-24T06:18:13;13.90;99.90
7290;DHT22;63176;52.678;13.250;2023-04-24T06:20:39;13.90;99.90
7290;DHT22;63176;52.678;13.250;2023-04-24T06:23:05;14.00;99.90
7290;DHT22;63176;52.678;13.250;2023-04-24T06:25:31;14.10;99.90
7290;DHT22;63176;52.678;13.250;2023-04-24T06:27:57;14.20;99.90
7290;DHT22;63176;52.678;13.250;2023-04-24T06:30:22;14.30;99.90
7290;DHT22;63176;52.678;13.250;2023-04-24T06:32:48;14.40;99.90
7290;DHT22;63176;52.678;13.250;2023-04-24T06:35:14;14.50;99.90
7290;DHT22;63176;52.678;13.250;2023-04-24T06:37:43;14.70;99.90
7290;DHT22;63176;52.678;13.250;2023-04-24T06:40:09;14.70;99.90
7290;DHT22;63176;52.678;13.250;2023-04-24T06:42:35;14.70;99.90
7290;DHT22;63176;52.678;13.250;2023-04-24T06:45:01;14.70;99.90
7290;DHT22;63176;52.678;13.250;2023-04-24T06:47:27;14.80;99.90
7290;DHT22;63176;52.678;13.250;2023-04-24T06:49:53;14.80;99.90
7290;DHT22;63176;52.678;13.250;2023-04-24T06:52:19;15.00;99.90
7290;DHT22;63176;52.678;13.250;2023-04-24T06:54:45;15.00;99.90
7290;DHT22;63176;52.678;13.250;2023-04-24T06:57:10;15.00;99.90
7290;DHT22;63176;52.678;13.250;2023-04-24T06:59:36;14.90;99.90
7290;DHT22;63176;52.678;13.250;2023-04-24T07:02:02;14.90;99.90
7290;DHT22;63176;52.678;13.250;2023-04-24T07:04:28;14.80;99.90
7290;DHT22;63176;52.678;13.250;2023-04-24T07:06:54;14.70;99.90
7290;DHT22;63176;52.678;13.250;2023-04-24T07:09:22;14.70;99.90
7290;DHT22;63176;52.678;13.250;2023-04-24T07:11:49;14.60;99.90
7290;DHT22;63176;52.678;13.250;2023-04-24T07:14:15;14.60;99.90
7290;DHT22;63176;52.678;13.250;2023-04-24T07:16:40;14.60;99.90
7290;DHT22;63176;52.678;13.250;2023-04-24T07:19:06;14.50;99.90
7290;DHT22;63176;52.678;13.250;2023-04-24T07:21:32;14.50;99.90
7290;DHT22;63176;52.678;13.250;2023-04-24T07:23:58;14.50;99.90
7290;DHT22;63176;52.678;13.250;2023-04-24T07:26:25;14.60;99.90
7290;DHT22;63176;52.678;13.250;2023-04-24T07:28:51;14.70;99.90
7290;DHT22;63176;52.678;13.250;2023-04-24T07:31:16;14.80;99.90
7290;DHT22;63176;52.678;13.250;2023-04-24T07:33:42;14.80;99.90
7290;DHT22;63176;52.678;13.250;2023-04-24T07:36:07;14.90;99.90
7290;DHT22;63176;52.678;13.250;2023-04-24T07:38:33;15.10;99.90
7290;DHT22;63176;52.678;13.250;2023-04-24T07:40:59;15.20;99.90
7290;DHT22;63176;52.678;13.250;2023-04-24T07:43:25;15.30;99.90
7290;DHT22;63176;52.678;13.250;2023-04-24T07:45:51;15.40;99.90
7290;DHT22;63176;52.678;13.250;2023-04-24T07:48:17;15.50;99.90
7290;DHT22;63176;52.678;13.250;2023-04-24T07:50:43;15.50;99.90
7290;DHT22;63176;52.678;13.250;2023-04-24T07:53:09;15.60;99.90
7290;DHT22;63176;52.678;13.250;2023-04-24T07:55:35;15.80;99.90
7290;DHT22;63176;52.678;13.250;2023-04-24T07:58:01;15.80;99.90
7290;DHT22;63176;52.678;13.250;2023-04-24T08:00:26;16.00;99.90
7290;DHT22;63176;52.678;13.250;2023-04-24T08:02:52;16.00;99.90
7290;DHT22;63176;52.678;13.250;2023-04-24T08:05:18;15.90;99.90
7290;DHT22;63176;52.678;13.250;2023-04-24T08:07:45;15.90;99.90
7290;DHT22;63176;52.678;13.250;2023-04-24T08:10:11;15.90;99.90
7290;DHT22;63176;52.678;13.250;2023-04-24T08:12:37;16.00;99.90
7290;DHT22;63176;52.678;13.250;2023-04-24T08:15:04;16.00;99.90
7290;DHT22;63176;52.678;13.250;2023-04-24T08:17:30;16.00;99.90
7290;DHT22;63176;52.678;13.250;2023-04-24T08:19:56;16.00;99.90
7290;DHT22;63176;52.678;13.250;2023-04-24T08:22:27;16.00;99.90
7290;DHT22;63176;52.678;13.250;2023-04-24T08:24:53;16.10;99.90
7290;DHT22;63176;52.678;13.250;2023-04-24T08:27:19;16.20;99.90
7290;DHT22;63176;52.678;13.250;2023-04-24T08:29:45;16.20;99.90
7290;DHT22;63176;52.678;13.250;2023-04-24T08:32:11;16.20;99.90
7290;DHT22;63176;52.678;13.250;2023-04-24T08:34:36;16.20;99.90
7290;DHT22;63176;52.678;13.250;2023-04-24T08:37:02;16.30;99.90
7290;DHT22;63176;52.678;13.250;2023-04-24T08:39:28;16.30;99.90
7290;DHT22;63176;52.678;13.250;2023-04-24T08:41:55;16.30;99.90
7290;DHT22;63176;52.678;13.250;2023-04-24T08:44:21;16.30;99.90
7290;DHT22;63176;52.678;13.250;2023-04-24T08:46:48;16.30;99.90
7290;DHT22;63176;52.678;13.250;2023-04-24T08:49:15;16.30;99.90
7290;DHT22;63176;52.678;13.250;2023-04-24T08:51:44;16.40;99.90
7290;DHT22;63176;52.678;13.250;2023-04-24T08:54:12;16.30;99.90
7290;DHT22;63176;52.678;13.250;2023-04-24T08:56:38;16.40;99.90
7290;DHT22;63176;52.678;13.250;2023-04-24T08:59:06;16.40;99.90
7290;DHT22;63176;52.678;13.250;2023-04-24T09:01:32;16.50;99.90
7290;DHT22;63176;52.678;13.250;2023-04-24T09:04:03;16.60;99.90
7290;DHT22;63176;52.678;13.250;2023-04-24T09:06:30;16.60;99.90
7290;DHT22;63176;52.678;13.250;2023-04-24T09:09:00;16.70;99.90
7290;DHT22;63176;52.678;13.250;2023-04-24T09:11:27;16.70;99.90
7290;DHT22;63176;52.678;13.250;2023-04-24T09:13:54;16.70;99.90
7290;DHT22;63176;52.678;13.250;2023-04-24T09:16:20;16.70;99.90
7290;DHT22;63176;52.678;13.250;2023-04-24T09:18:48;16.60;99.60
7290;DHT22;63176;52.678;13.250;2023-04-24T09:21:14;16.60;99.30
7290;DHT22;63176;52.678;13.250;2023-04-24T09:23:40;16.60;99.10
7290;DHT22;63176;52.678;13.250;2023-04-24T09:26:06;16.60;99.60
7290;DHT22;63176;52.678;13.250;2023-04-24T09:28:38;16.60;99.70
7290;DHT22;63176;52.678;13.250;2023-04-24T09:31:17;16.60;99.00
7290;DHT22;63176;52.678;13.250;2023-04-24T09:34:03;16.70;99.90
7290;DHT22;63176;52.678;13.250;2023-04-24T09:36:33;16.80;99.90
7290;DHT22;63176;52.678;13.250;2023-04-24T09:39:00;16.80;99.40
7290;DHT22;63176;52.678;13.250;2023-04-24T09:41:26;16.70;99.30
7290;DHT22;63176;52.678;13.250;2023-04-24T09:43:57;16.70;99.00
7290;DHT22;63176;52.678;13.250;2023-04-24T09:46:30;16.60;98.80
7290;DHT22;63176;52.678;13.250;2023-04-24T09:48:57;16.50;98.20
7290;DHT22;63176;52.678;13.250;2023-04-24T09:51:36;16.40;98.40
7290;DHT22;63176;52.678;13.250;2023-04-24T09:54:03;16.40;97.20
7290;DHT22;63176;52.678;13.250;2023-04-24T09:56:32;16.30;97.10
7290;DHT22;63176;52.678;13.250;2023-04-24T09:59:06;16.20;96.90
7290;DHT22;63176;52.678;13.250;2023-04-24T10:01:32;16.20;96.50
7290;DHT22;63176;52.678;13.250;2023-04-24T10:03:57;16.10;96.20
7290;DHT22;63176;52.678;13.250;2023-04-24T10:06:32;16.00;95.00
7290;DHT22;63176;52.678;13.250;2023-04-24T10:08:58;15.90;95.90
7290;DHT22;63176;52.678;13.250;2023-04-24T10:11:26;15.90;96.10
7290;DHT22;63176;52.678;13.250;2023-04-24T10:13:52;16.00;96.40
7290;DHT22;63176;52.678;13.250;2023-04-24T10:16:20;16.10;95.60
7290;DHT22;63176;52.678;13.250;2023-04-24T10:18:48;16.10;96.40
7290;DHT22;63176;52.678;13.250;2023-04-24T10:21:15;16.20;96.40
7290;DHT22;63176;52.678;13.250;2023-04-24T10:23:41;16.20;95.90
7290;DHT22;63176;52.678;13.250;2023-04-24T10:26:09;16.20;96.00
7290;DHT22;63176;52.678;13.250;2023-04-24T10:28:36;16.30;97.40
7290;DHT22;63176;52.678;13.250;2023-04-24T10:31:02;16.40;98.00
7290;DHT22;63176;52.678;13.250;2023-04-24T10:33:29;16.40;96.60
7290;DHT22;63176;52.678;13.250;2023-04-24T10:35:56;16.40;96.10
7290;DHT22;63176;52.678;13.250;2023-04-24T10:38:25;16.40;95.30
7290;DHT22;63176;52.678;13.250;2023-04-24T10:40:58;16.30;95.20
7290;DHT22;63176;52.678;13.250;2023-04-24T10:43:33;16.20;94.90
7290;DHT22;63176;52.678;13.250;2023-04-24T10:46:03;16.10;95.00
7290;DHT22;63176;52.678;13.250;2023-04-24T10:48:30;16.10;95.00
7290;DHT22;63176;52.678;13.250;2023-04-24T10:50:55;16.10;95.70
7290;DHT22;63176;52.678;13.250;2023-04-24T10:53:23;16.10;96.10
7290;DHT22;63176;52.678;13.250;2023-04-24T10:56:25;16.20;96.10
7290;DHT22;63176;52.678;13.250;2023-04-24T10:58:49;16.30;96.60
7290;DHT22;63176;52.678;13.250;2023-04-24T11:03:55;16.70;97.40
7290;DHT22;63176;52.678;13.250;2023-04-24T11:06:42;16.90;97.40
7290;DHT22;63176;52.678;13.250;2023-04-24T11:09:10;17.10;97.20
7290;DHT22;63176;52.678;13.250;2023-04-24T11:11:45;17.20;97.20
7290;DHT22;63176;52.678;13.250;2023-04-24T11:14:14;17.40;98.30
7290;DHT22;63176;52.678;13.250;2023-04-24T11:16:54;17.50;98.30
7290;DHT22;63176;52.678;13.250;2023-04-24T11:19:24;17.60;98.50
7290;DHT22;63176;52.678;13.250;2023-04-24T11:24:30;17.70;99.80
7290;DHT22;63176;52.678;13.250;2023-04-24T11:27:20;17.70;99.00
7290;DHT22;63176;52.678;13.250;2023-04-24T11:32:35;17.40;96.40
7290;DHT22;63176;52.678;13.250;2023-04-24T11:35:19;17.30;98.80
7290;DHT22;63176;52.678;13.250;2023-04-24T11:37:51;17.20;99.90
7290;DHT22;63176;52.678;13.250;2023-04-24T11:40:18;17.20;99.90
7290;DHT22;63176;52.678;13.250;2023-04-24T11:42:51;17.30;99.90
7290;DHT22;63176;52.678;13.250;2023-04-24T11:45:18;17.30;99.90
7290;DHT22;63176;52.678;13.250;2023-04-24T11:47:45;17.40;99.90
7290;DHT22;63176;52.678;13.250;2023-04-24T11:50:13;17.70;99.90
7290;DHT22;63176;52.678;13.250;2023-04-24T11:52:40;18.00;99.90
7290;DHT22;63176;52.678;13.250;2023-04-24T11:57:45;18.80;99.90
7290;DHT22;63176;52.678;13.250;2023-04-24T12:00:19;19.10;99.90
7290;DHT22;63176;52.678;13.250;2023-04-24T12:02:46;19.10;99.90
7290;DHT22;63176;52.678;13.250;2023-04-24T12:05:25;19.10;99.90
7290;DHT22;63176;52.678;13.250;2023-04-24T12:07:52;18.90;99.10
7290;DHT22;63176;52.678;13.250;2023-04-24T12:10:26;18.70;98.60
7290;DHT22;63176;52.678;13.250;2023-04-24T12:12:52;18.50;98.50
7290;DHT22;63176;52.678;13.250;2023-04-24T12:15:21;18.40;97.50
7290;DHT22;63176;52.678;13.250;2023-04-24T12:17:47;18.30;96.70
7290;DHT22;63176;52.678;13.250;2023-04-24T12:20:14;18.20;95.60
7290;DHT22;63176;52.678;13.250;2023-04-24T12:22:59;18.10;95.50
7290;DHT22;63176;52.678;13.250;2023-04-24T12:25:26;17.80;93.80
7290;DHT22;63176;52.678;13.250;2023-04-24T12:30:29;17.80;92.20
7290;DHT22;63176;52.678;13.250;2023-04-24T12:32:57;17.80;93.00
7290;DHT22;63176;52.678;13.250;2023-04-24T12:35:25;17.70;92.10
7290;DHT22;63176;52.678;13.250;2023-04-24T12:37:50;17.60;91.70
7290;DHT22;63176;52.678;13.250;2023-04-24T12:40:17;17.60;94.20
7290;DHT22;63176;52.678;13.250;2023-04-24T12:42:45;17.70;93.90
7290;DHT22;63176;52.678;13.250;2023-04-24T12:45:10;17.70;92.10
7290;DHT22;63176;52.678;13.250;2023-04-24T12:47:38;17.90;91.30
7290;DHT22;63176;52.678;13.250;2023-04-24T12:50:05;18.00;91.40
7290;DHT22;63176;52.678;13.250;2023-04-24T12:52:31;18.10;91.00
7290;DHT22;63176;52.678;13.250;2023-04-24T12:55:00;18.10;91.50
7290;DHT22;63176;52.678;13.250;2023-04-24T12:57:27;18.00;92.60
7290;DHT22;63176;52.678;13.250;2023-04-24T12:59:58;17.90;92.70
7290;DHT22;63176;52.678;13.250;2023-04-24T13:02:25;18.10;94.80
7290;DHT22;63176;52.678;13.250;2023-04-24T13:04:51;18.30;96.50
7290;DHT22;63176;52.678;13.250;2023-04-24T13:07:17;18.30;95.80
7290;DHT22;63176;52.678;13.250;2023-04-24T13:09:44;18.40;97.80
7290;DHT22;63176;52.678;13.250;2023-04-24T13:12:10;18.40;96.60
7290;DHT22;63176;52.678;13.250;2023-04-24T13:14:37;18.40;97.10
7290;DHT22;63176;52.678;13.250;2023-04-24T13:17:03;18.50;97.40
7290;DHT22;63176;52.678;13.250;2023-04-24T13:19:29;18.50;98.60
7290;DHT22;63176;52.678;13.250;2023-04-24T13:21:56;18.40;96.80
7290;DHT22;63176;52.678;13.250;2023-04-24T13:24:23;18.30;95.40
7290;DHT22;63176;52.678;13.250;2023-04-24T13:26:54;18.20;95.00
7290;DHT22;63176;52.678;13.250;2023-04-24T13:29:22;18.20;94.60
7290;DHT22;63176;52.678;13.250;2023-04-24T13:31:50;18.40;93.20
7290;DHT22;63176;52.678;13.250;2023-04-24T13:34:17;18.70;96.10
7290;DHT22;63176;52.678;13.250;2023-04-24T13:36:42;19.10;95.90
7290;DHT22;63176;52.678;13.250;2023-04-24T13:39:08;19.30;96.30
7290;DHT22;63176;52.678;13.250;2023-04-24T13:41:34;19.20;94.10
7290;DHT22;63176;52.678;13.250;2023-04-24T13:44:00;19.20;93.80
7290;DHT22;63176;52.678;13.250;2023-04-24T13:46:26;19.50;94.90
7290;DHT22;63176;52.678;13.250;2023-04-24T13:48:52;19.70;94.50
7290;DHT22;63176;52.678;13.250;2023-04-24T13:51:18;19.90;95.60
7290;DHT22;63176;52.678;13.250;2023-04-24T13:53:43;20.10;94.90
7290;DHT22;63176;52.678;13.250;2023-04-24T13:56:09;20.50;95.10
7290;DHT22;63176;52.678;13.250;2023-04-24T13:58:35;20.50;93.20
7290;DHT22;63176;52.678;13.250;2023-04-24T14:01:04;20.30;90.00
7290;DHT22;63176;52.678;13.250;2023-04-24T14:03:30;19.80;83.00
7290;DHT22;63176;52.678;13.250;2023-04-24T14:05:56;19.20;77.30
7290;DHT22;63176;52.678;13.250;2023-04-24T14:08:21;18.90;73.70
7290;DHT22;63176;52.678;13.250;2023-04-24T14:10:47;18.90;74.90
7290;DHT22;63176;52.678;13.250;2023-04-24T14:13:13;18.90;74.00
7290;DHT22;63176;52.678;13.250;2023-04-24T14:15:39;19.30;94.20
7290;DHT22;63176;52.678;13.250;2023-04-24T14:18:05;19.40;74.20
7290;DHT22;63176;52.678;13.250;2023-04-24T14:20:30;19.70;74.80
7290;DHT22;63176;52.678;13.250;2023-04-24T14:22:56;20.30;78.40
7290;DHT22;63176;52.678;13.250;2023-04-24T14:25:24;20.80;79.10
7290;DHT22;63176;52.678;13.250;2023-04-24T14:27:50;21.20;71.80
7290;DHT22;63176;52.678;13.250;2023-04-24T14:30:17;21.40;66.70
7290;DHT22;63176;52.678;13.250;2023-04-24T14:32:43;21.50;64.00
7290;DHT22;63176;52.678;13.250;2023-04-24T14:35:09;21.50;64.10
7290;DHT22;63176;52.678;13.250;2023-04-24T14:37:35;21.60;63.80
7290;DHT22;63176;52.678;13.250;2023-04-24T14:40:01;21.60;63.50
7290;DHT22;63176;52.678;13.250;2023-04-24T14:42:27;21.70;61.70
7290;DHT22;63176;52.678;13.250;2023-04-24T14:44:54;21.20;56.40
7290;DHT22;63176;52.678;13.250;2023-04-24T14:47:20;21.00;52.40
7290;DHT22;63176;52.678;13.250;2023-04-24T14:49:47;20.90;48.40
7290;DHT22;63176;52.678;13.250;2023-04-24T14:52:13;20.50;44.50
7290;DHT22;63176;52.678;13.250;2023-04-24T14:54:39;20.50;41.70
7290;DHT22;63176;52.678;13.250;2023-04-24T14:57:05;20.30;39.30
7290;DHT22;63176;52.678;13.250;2023-04-24T14:59:30;19.70;35.60
7290;DHT22;63176;52.678;13.250;2023-04-24T15:01:57;19.30;31.40
7290;DHT22;63176;52.678;13.250;2023-04-24T15:04:24;18.90;29.50
7290;DHT22;63176;52.678;13.250;2023-04-24T15:06:53;19.00;29.30
7290;DHT22;63176;52.678;13.250;2023-04-24T15:09:24;19.00;29.20
7290;DHT22;63176;52.678;13.250;2023-04-24T15:11:50;18.80;29.00
7290;DHT22;63176;52.678;13.250;2023-04-24T15:14:17;19.10;29.70
7290;DHT22;63176;52.678;13.250;2023-04-24T15:16:43;20.20;34.90
7290;DHT22;63176;52.678;13.250;2023-04-24T15:19:09;21.10;41.50
7290;DHT22;63176;52.678;13.250;2023-04-24T15:21:36;21.20;41.80
7290;DHT22;63176;52.678;13.250;2023-04-24T15:24:02;21.20;40.00
7290;DHT22;63176;52.678;13.250;2023-04-24T15:26:27;21.20;39.60
7290;DHT22;63176;52.678;13.250;2023-04-24T15:28:53;20.60;34.60
7290;DHT22;63176;52.678;13.250;2023-04-24T15:31:19;19.90;29.80
7290;DHT22;63176;52.678;13.250;2023-04-24T15:33:44;19.40;27.70
7290;DHT22;63176;52.678;13.250;2023-04-24T15:36:10;18.90;24.80
7290;DHT22;63176;52.678;13.250;2023-04-24T15:38:37;18.50;21.20
7290;DHT22;63176;52.678;13.250;2023-04-24T15:41:03;18.00;19.20